Mc Minnville Municipal Airport
KMMV : rendu visible

Aérodrome :











RETROUVEZ-NOUS SUR...

 
LOGIN :

S'inscrire | Disclaimer

   EN    FR    IT 

 









Légende :    VFR   VFR Marginal   IFR   IFR Intensif   IFR Très Intensif
Visi : 
Plafond : 
>= 8 km
>= 3000ft
5 à 8 km
1000 à 3000 ft
1500m à 5 km
500 à 1000 ft
800 à 1500m
200 à 500 ft
< 800m
< 200 ft
Symboles :   Orages  Brouillard  Fortes neiges  Fortes précipitations  Vent > 20 kt






- Altitude de l'aérodrome : 163 ft


KMMV - Mc Minnville Municipal

DERNIER METAR :
  • 200453Z AUTO 36005KT 10SM FEW042 SCT055 09/05 A3000 RMK AO2 SLP160 T00890050

METARs EXPIRÉS :
  • 200353Z AUTO 35008KT 10SM BKN032 OVC055 11/06 A2998 RMK AO2 SLP152 T01060056
  • 200253Z AUTO 35003KT 10SM BKN034 OVC055 11/06 A2997 RMK AO2 SLP147 T01060061 53022

TAF N/A



MET'MAP, la Météo Aéronautique d'un coup d'oeil ! - Copyright ORBIFLY Décembre 2007 - Disclaimer

ORBIFLY MET'MAP TEAM :

Programmation & Développement : Alexandra Zaïnal
Conception & Développement : Baudouin d'Aumeries
Co-Programmation & Développement : Marc-Olivier Méhu
Soutien technique & logistique : Manuel Goepfert

Contact : metmap@orbifly.com




SOURCES & CREDITS :

   NOAA       Earth
Advisory